Nashville, TN (37232)

3:55 AM CST on January 28, 2015 (GMT -0600)
APRSWXNET Nashville TN US | Change Station
CLOSE
Current Station
Personal Weather Station
Location: Nashville, TN
Elevation: 728 ft
Nearby Weather Stations

Elev 728 ft 36.14 °N, 86.80 °W | Updated 20 minutes ago

Overcast
Overcast
34 °F
Feels Like 29 °F
N
6
Wind Variable Wind from NE
Gusts 10.0 mph

Today
High -- | Low -- °F
--% Chance of Precip.
Yesterday
High -- | Low -- °F
Precip. -- in
6:51 AM 5:09 PM
Waxing Gibbous, 63% visible
Pressure 30.27 in
Visibility 10.0 miles
Clouds Overcast 3200 ft
Windchill 29 °F
Dew Point 28 °F
Humidity 80%
Rainfall 0.00 in
Snow Depth Not available.
UV 0 out of 12
Pollen .90 out of 12
Air Quality Not available.
Flu Activity Not available.
METAR KBNA 280853Z 03006KT 10SM OVC032 01/M02 A3026 RMK AO2 SLP251 T00061022 51007

More Conditions Fewer Conditions

Pressure 30.27 in
Visibility 10.0 miles
Clouds Overcast 3200 ft
Windchill 29 °F
Dew Point 28 °F
Humidity 80%
Rainfall 0.00 in
Snow Depth Not available.
UV 0 out of 12
Pollen .90 out of 12
Air Quality Not available.
Flu Activity Not available.
METAR KBNA 280853Z 03006KT 10SM OVC032 01/M02 A3026 RMK AO2 SLP251 T00061022 51007

More Conditions Fewer Conditions

10-Day Weather Forecast

Almanac

Astronomy

Jan. 28, 2015 Rise Set
Actual Time
Civil Twilight
Nautical Twilight
Astronomical Twilight
Moon
Length of Visible Light
Length of Day
Tomorrow will be .
, % of the Moon is Illuminated

Today's Extremes

State Highs State Lows

Community

WunderPhotos

Upload Photos

1,791,120 photos uploaded!

WunderBlogs® & News

Nearby

Air Quality

  Air Quality AQ Index Pollutant
Not available.

Snow Depth

Station Depth Elevation

Earthquake Activity

City Distance Mag. Time & Date
Minimum magnitude displayed is 2.5.

Coastal Water Temperatures

Place Temperature

Nearby Weather Stations